createdAt,value
2023-02-15T00:01:55.853Z,5.15
2023-02-15T00:04:58.200Z,5.25
2023-02-15T00:08:00.145Z,5.65
2023-02-15T00:11:02.676Z,5.93
2023-02-15T00:14:05.413Z,6.07
2023-02-15T00:17:08.127Z,5.68
2023-02-15T00:20:11.232Z,5.25
2023-02-15T00:23:14.349Z,5.45
2023-02-15T00:26:16.520Z,5.65
2023-02-15T00:29:20.363Z,5.63
2023-02-15T00:32:22.879Z,5.85
2023-02-15T00:35:25.215Z,5.93
2023-02-15T00:38:27.720Z,6.10
2023-02-15T00:41:31.502Z,6.40
2023-02-15T00:44:34.299Z,5.50
2023-02-15T00:47:37.271Z,5.50
2023-02-15T00:50:39.463Z,5.30
2023-02-15T00:53:42.250Z,4.95
2023-02-15T00:56:45.071Z,4.93
2023-02-15T00:59:48.638Z,4.88
2023-02-15T01:02:52.033Z,4.93
2023-02-15T01:05:55.302Z,4.82
2023-02-15T01:08:59.208Z,4.50
2023-02-15T01:12:02.687Z,4.43
2023-02-15T01:15:05.627Z,5.00
2023-02-15T01:18:08.424Z,5.10
2023-02-15T01:21:10.962Z,5.47
2023-02-15T01:24:13.839Z,5.05
2023-02-15T01:27:16.034Z,4.97
2023-02-15T01:30:19.578Z,4.97
2023-02-15T01:33:23.199Z,4.97
2023-02-15T01:36:25.883Z,4.97
2023-02-15T01:39:28.882Z,4.93
2023-02-15T01:42:32.433Z,5.13
2023-02-15T01:45:35.101Z,5.38
2023-02-15T01:48:38.070Z,5.22
2023-02-15T01:51:41.066Z,5.68
2023-02-15T01:54:43.358Z,5.45
2023-02-15T01:57:45.988Z,5.53
2023-02-15T02:00:49.465Z,5.10
2023-02-15T02:03:51.372Z,4.93
2023-02-15T02:06:54.028Z,4.78
2023-02-15T02:09:57.018Z,4.85
2023-02-15T02:12:59.832Z,5.07
2023-02-15T02:16:03.761Z,4.70
2023-02-15T02:19:07.385Z,4.63
2023-02-15T02:22:09.932Z,4.15
2023-02-15T02:25:12.304Z,4.45
2023-02-15T02:28:15.246Z,4.20
2023-02-15T02:31:18.012Z,4.72
2023-02-15T02:34:22.805Z,5.00
2023-02-15T02:37:25.920Z,4.97
2023-02-15T02:40:28.130Z,5.28
2023-02-15T02:43:31.196Z,4.95
2023-02-15T02:46:34.682Z,5.00
2023-02-15T02:49:37.807Z,5.47
2023-02-15T02:52:41.006Z,5.72
2023-02-15T02:55:44.071Z,5.63
2023-02-15T02:58:46.897Z,5.75
2023-02-15T03:01:50.348Z,5.97
2023-02-15T03:04:53.259Z,6.18
2023-02-15T03:07:55.845Z,6.10
2023-02-15T03:10:58.081Z,6.65
2023-02-15T03:14:00.778Z,5.97
2023-02-15T03:17:03.193Z,5.60
2023-02-15T03:20:06.323Z,5.57
2023-02-15T03:23:09.715Z,5.57
2023-02-15T03:26:13.236Z,5.45
2023-02-15T03:29:16.113Z,5.63
2023-02-15T03:32:18.908Z,5.30
2023-02-15T03:35:22.293Z,5.63
2023-02-15T03:38:25.397Z,5.70
2023-02-15T03:41:28.824Z,5.65
2023-02-15T03:44:32.895Z,5.60
2023-02-15T03:47:35.820Z,6.25
2023-02-15T03:50:38.625Z,6.00
2023-02-15T03:53:40.857Z,5.95
2023-02-15T03:56:43.143Z,6.43
2023-02-15T03:59:45.521Z,6.47
2023-02-15T04:02:49.283Z,5.78
2023-02-15T04:05:52.474Z,6.53
2023-02-15T04:08:55.762Z,7.00
2023-02-15T04:11:58.237Z,7.05
2023-02-15T04:15:01.470Z,6.70
2023-02-15T04:18:04.853Z,7.05
2023-02-15T04:21:07.460Z,6.95
2023-02-15T04:24:10.287Z,6.50
2023-02-15T04:27:13.072Z,6.53
2023-02-15T04:30:16.309Z,6.15
2023-02-15T04:33:19.657Z,6.28
2023-02-15T04:36:22.660Z,5.90
2023-02-15T04:39:26.086Z,6.13
2023-02-15T04:42:28.759Z,5.47
2023-02-15T04:45:31.487Z,6.00
2023-02-15T04:48:33.994Z,6.07
2023-02-15T04:51:36.897Z,5.97
2023-02-15T04:54:39.576Z,5.60
2023-02-15T04:57:42.360Z,5.97
2023-02-15T05:00:45.025Z,6.18
2023-02-15T05:03:47.897Z,6.35
2023-02-15T05:06:51.544Z,6.10
2023-02-15T05:09:54.244Z,6.10
2023-02-15T05:12:56.978Z,5.93
2023-02-15T05:16:00.050Z,6.15
2023-02-15T05:19:02.771Z,6.63
2023-02-15T05:22:05.906Z,7.30
2023-02-15T05:25:08.065Z,6.57
2023-02-15T05:28:11.195Z,7.18
2023-02-15T05:31:15.147Z,6.93
2023-02-15T05:34:18.385Z,6.32
2023-02-15T05:37:20.998Z,5.88
2023-02-15T05:40:23.695Z,6.38
2023-02-15T05:43:25.904Z,5.32
2023-02-15T05:46:28.930Z,5.75
2023-02-15T05:49:31.924Z,5.38
2023-02-15T05:52:34.651Z,5.68
2023-02-15T05:55:37.411Z,5.63
2023-02-15T05:58:40.216Z,5.60
2023-02-15T06:01:43.310Z,5.78
2023-02-15T06:04:47.152Z,5.50
2023-02-15T06:07:50.062Z,5.93
2023-02-15T06:10:53.138Z,5.90
2023-02-15T06:13:56.162Z,6.10
2023-02-15T06:16:59.162Z,6.05
2023-02-15T06:20:01.673Z,6.28
2023-02-15T06:23:04.789Z,6.22
2023-02-15T06:26:07.766Z,6.10
2023-02-15T06:29:10.122Z,6.28
2023-02-15T06:32:12.399Z,5.93
2023-02-15T06:35:15.315Z,6.03
2023-02-15T06:38:18.174Z,5.97
2023-02-15T06:41:20.841Z,6.30
2023-02-15T06:44:23.544Z,6.22
2023-02-15T06:47:26.278Z,5.43
2023-02-15T06:50:29.237Z,5.88
2023-02-15T06:53:32.170Z,5.38
2023-02-15T06:56:34.338Z,5.57
2023-02-15T06:59:36.585Z,5.60
2023-02-15T07:02:39.314Z,5.22
2023-02-15T07:05:42.066Z,5.63
2023-02-15T07:08:45.486Z,5.65
2023-02-15T07:11:48.373Z,5.03
2023-02-15T07:14:51.749Z,4.97
2023-02-15T07:17:53.991Z,5.93
2023-02-15T07:20:57.052Z,5.47
2023-02-15T07:24:00.148Z,5.93
2023-02-15T07:27:03.199Z,5.63
2023-02-15T07:30:06.360Z,5.88
2023-02-15T07:33:09.602Z,6.00
2023-02-15T07:36:12.637Z,5.55
2023-02-15T07:39:15.262Z,6.05
2023-02-15T07:42:17.953Z,6.20
2023-02-15T07:45:20.568Z,5.82
2023-02-15T07:48:24.977Z,6.13
2023-02-15T07:51:27.599Z,6.55
2023-02-15T07:54:30.956Z,5.95
2023-02-15T07:57:33.414Z,5.90
2023-02-15T08:00:36.155Z,5.15
2023-02-15T08:03:38.882Z,5.40
2023-02-15T08:06:41.787Z,5.63
2023-02-15T08:09:45.407Z,4.93
2023-02-15T08:12:48.411Z,5.47
2023-02-15T08:15:52.444Z,4.80
2023-02-15T08:18:56.271Z,5.20
2023-02-15T08:21:58.953Z,4.90
2023-02-15T08:25:01.892Z,5.72
2023-02-15T08:28:04.220Z,5.75
2023-02-15T08:31:06.981Z,5.88
2023-02-15T08:34:09.242Z,5.25
2023-02-15T08:37:12.173Z,5.57
2023-02-15T08:40:15.531Z,5.50
2023-02-15T08:43:19.062Z,5.80
2023-02-15T08:46:22.570Z,5.97
2023-02-15T08:49:25.288Z,6.07
2023-02-15T08:52:27.606Z,5.70
2023-02-15T08:55:30.721Z,6.05
2023-02-15T08:58:34.171Z,5.55
2023-02-15T09:01:37.018Z,5.65
2023-02-15T09:04:40.316Z,6.50
2023-02-15T09:07:43.229Z,6.32
2023-02-15T09:10:46.330Z,6.10
2023-02-15T09:13:49.402Z,6.38
2023-02-15T09:16:52.508Z,6.22
2023-02-15T09:19:56.087Z,6.72
2023-02-15T09:23:00.026Z,6.32
2023-02-15T09:26:03.998Z,5.90
2023-02-15T09:29:07.432Z,5.40
2023-02-15T09:32:10.246Z,5.40
2023-02-15T09:35:13.241Z,5.47
2023-02-15T09:38:16.376Z,5.45
2023-02-15T09:41:19.349Z,5.32
2023-02-15T09:44:21.977Z,5.28
2023-02-15T09:47:24.948Z,6.00
2023-02-15T09:50:27.168Z,5.90
2023-02-15T09:53:30.166Z,5.57
2023-02-15T09:56:33.641Z,5.35
2023-02-15T09:59:36.145Z,5.57
2023-02-15T10:02:39.448Z,5.93
2023-02-15T10:05:42.311Z,5.82
2023-02-15T10:08:45.030Z,6.30
2023-02-15T10:11:48.536Z,5.93
2023-02-15T10:14:52.024Z,5.93
2023-02-15T10:17:54.219Z,6.15
2023-02-15T10:20:57.106Z,5.90
2023-02-15T10:24:00.247Z,6.20
2023-02-15T10:27:03.579Z,5.95
2023-02-15T10:30:06.617Z,6.40
2023-02-15T10:33:09.067Z,6.70
2023-02-15T10:36:11.324Z,7.03
2023-02-15T10:39:13.673Z,7.07
2023-02-15T10:42:16.061Z,6.80
2023-02-15T10:45:18.857Z,6.65
2023-02-15T10:48:21.907Z,6.68
2023-02-15T10:51:24.783Z,7.30
2023-02-15T10:54:28.219Z,6.80
2023-02-15T10:57:31.787Z,6.40
2023-02-15T11:00:34.012Z,6.45
2023-02-15T11:03:36.270Z,6.63
2023-02-15T11:06:38.811Z,7.10
2023-02-15T11:09:42.104Z,7.78
2023-02-15T11:12:45.135Z,7.10
2023-02-15T11:15:47.945Z,7.25
2023-02-15T11:18:51.844Z,7.28
2023-02-15T11:21:55.302Z,7.32
2023-02-15T11:24:57.965Z,7.07
2023-02-15T11:28:00.750Z,7.25
2023-02-15T11:31:04.215Z,7.88
2023-02-15T11:34:07.616Z,7.47
2023-02-15T11:37:10.547Z,6.95
2023-02-15T11:40:13.593Z,6.80
2023-02-15T11:43:16.445Z,7.68
2023-02-15T11:46:19.468Z,7.75
2023-02-15T11:49:21.886Z,7.72
2023-02-15T11:52:24.006Z,7.03
2023-02-15T11:55:26.852Z,7.95
2023-02-15T11:58:29.875Z,7.28
2023-02-15T12:01:32.151Z,7.10
2023-02-15T12:04:35.480Z,7.50
2023-02-15T12:07:38.438Z,7.95
2023-02-15T12:10:41.257Z,7.45
2023-02-15T12:13:43.962Z,7.95
2023-02-15T12:16:46.718Z,7.75
2023-02-15T12:19:50.106Z,8.05
2023-02-15T12:22:52.815Z,8.18
2023-02-15T12:25:55.536Z,8.27
2023-02-15T12:28:59.161Z,9.23
2023-02-15T12:32:01.947Z,8.38
2023-02-15T12:35:04.952Z,8.13
2023-02-15T12:38:08.304Z,8.75
2023-02-15T12:41:12.121Z,8.80
2023-02-15T12:44:15.111Z,8.95
2023-02-15T12:47:17.831Z,8.77
2023-02-15T12:50:20.118Z,9.40
2023-02-15T12:53:23.307Z,9.20
2023-02-15T12:56:26.311Z,9.07
2023-02-15T12:59:28.688Z,8.57
2023-02-15T13:02:31.798Z,8.20
2023-02-15T13:05:34.649Z,8.43
2023-02-15T13:08:37.442Z,8.77
2023-02-15T13:11:40.117Z,8.52
2023-02-15T13:14:43.150Z,9.05
2023-02-15T13:17:46.440Z,8.90
2023-02-15T13:20:49.443Z,8.90
2023-02-15T13:23:52.313Z,8.68
2023-02-15T13:27:03.488Z,8.52
2023-02-15T13:30:15.415Z,8.60
2023-02-15T13:33:18.293Z,9.13
2023-02-15T13:36:21.329Z,8.88
2023-02-15T13:39:23.942Z,8.57
2023-02-15T13:42:26.735Z,8.40
2023-02-15T13:45:29.436Z,8.85
2023-02-15T13:48:45.793Z,8.80
2023-02-15T13:51:51.505Z,8.50
2023-02-15T13:54:54.187Z,8.15
2023-02-15T13:57:56.762Z,9.07
2023-02-15T14:00:59.876Z,8.70
2023-02-15T14:04:03.002Z,8.63
2023-02-15T14:07:05.938Z,8.77
2023-02-15T14:10:08.799Z,9.13
2023-02-15T14:13:11.069Z,8.88
2023-02-15T14:16:13.548Z,8.77
2023-02-15T14:19:16.776Z,9.95
2023-02-15T14:22:19.713Z,9.85
2023-02-15T14:25:22.319Z,9.10
2023-02-15T14:28:25.544Z,8.55
2023-02-15T14:31:29.204Z,9.80
2023-02-15T14:34:32.588Z,9.68
2023-02-15T14:37:35.829Z,10.27
2023-02-15T14:40:38.921Z,10.02
2023-02-15T14:43:40.911Z,9.32
2023-02-15T14:46:43.565Z,9.40
2023-02-15T14:49:46.631Z,9.32
2023-02-15T14:52:49.468Z,10.18
2023-02-15T14:55:52.148Z,9.55
2023-02-15T14:58:54.657Z,9.07
2023-02-15T15:01:57.626Z,9.77
2023-02-15T15:05:01.109Z,9.98
2023-02-15T15:08:03.955Z,9.55
2023-02-15T15:11:08.886Z,11.95
2023-02-15T15:14:11.422Z,9.80
2023-02-15T15:17:14.985Z,10.90
2023-02-15T15:20:17.703Z,10.88
2023-02-15T15:23:20.243Z,10.80
2023-02-15T15:26:23.342Z,10.77
2023-02-15T15:29:26.248Z,10.43
2023-02-15T15:32:29.024Z,11.35
2023-02-15T15:35:32.331Z,10.75
2023-02-15T15:38:35.429Z,10.60
2023-02-15T15:41:38.160Z,11.40
2023-02-15T15:44:41.338Z,10.23
2023-02-15T15:47:44.785Z,11.45
2023-02-15T15:50:49.575Z,10.48
2023-02-15T15:53:52.168Z,9.90
2023-02-15T15:56:54.574Z,9.98
2023-02-15T15:59:57.273Z,9.50
2023-02-15T16:03:00.381Z,9.90
2023-02-15T16:06:03.494Z,9.55
2023-02-15T16:09:05.982Z,8.95
2023-02-15T16:12:08.447Z,9.75
2023-02-15T16:15:11.496Z,9.68
2023-02-15T16:18:14.722Z,9.57
2023-02-15T16:21:17.464Z,8.98
2023-02-15T16:24:19.934Z,9.30
2023-02-15T16:27:22.848Z,9.43
2023-02-15T16:30:25.408Z,9.40
2023-02-15T16:33:28.594Z,9.27
2023-02-15T16:36:31.936Z,8.88
2023-02-15T16:39:35.272Z,9.55
2023-02-15T16:42:37.671Z,9.05
2023-02-15T16:45:41.119Z,8.73
2023-02-15T16:48:44.171Z,8.95
2023-02-15T16:51:46.800Z,9.00
2023-02-15T16:54:50.170Z,8.60
2023-02-15T16:57:53.398Z,8.40
2023-02-15T17:00:57.012Z,8.85
2023-02-15T17:04:00.131Z,8.85
2023-02-15T17:07:02.738Z,8.35
2023-02-15T17:10:06.156Z,8.73
2023-02-15T17:13:09.058Z,8.52
2023-02-15T17:16:11.515Z,8.55
2023-02-15T17:19:14.275Z,8.50
2023-02-15T17:22:17.240Z,8.55
2023-02-15T17:25:19.916Z,8.85
2023-02-15T17:28:22.786Z,9.35
2023-02-15T17:31:26.128Z,8.73
2023-02-15T17:34:29.169Z,8.55
2023-02-15T17:37:31.648Z,8.80
2023-02-15T17:40:34.368Z,8.75
2023-02-15T17:43:37.242Z,8.80
2023-02-15T17:46:39.761Z,9.18
2023-02-15T17:49:42.613Z,9.15
2023-02-15T17:52:45.917Z,9.75
2023-02-15T17:55:49.762Z,9.68
2023-02-15T17:58:53.185Z,9.27
2023-02-15T18:01:55.542Z,8.60
2023-02-15T18:04:58.694Z,9.60
2023-02-15T18:08:01.934Z,8.95
2023-02-15T18:11:05.140Z,8.35
2023-02-15T18:14:07.994Z,10.00
2023-02-15T18:17:10.862Z,10.25
2023-02-15T18:20:13.834Z,9.77
2023-02-15T18:23:17.024Z,9.50
2023-02-15T18:26:20.553Z,9.98
2023-02-15T18:29:23.601Z,9.88
2023-02-15T18:32:26.718Z,9.75
2023-02-15T18:35:30.536Z,9.98
2023-02-15T18:38:33.220Z,9.38
2023-02-15T18:41:36.054Z,9.55
2023-02-15T18:44:39.512Z,10.30
2023-02-15T18:47:42.587Z,9.75
2023-02-15T18:50:45.460Z,10.05
2023-02-15T18:53:48.186Z,9.25
2023-02-15T18:56:52.210Z,9.20
2023-02-15T18:59:55.243Z,9.35
2023-02-15T19:02:57.700Z,8.90
2023-02-15T19:06:00.377Z,9.98
2023-02-15T19:09:03.784Z,9.73
2023-02-15T19:12:06.044Z,10.02
2023-02-15T19:15:09.512Z,10.45
2023-02-15T19:18:12.476Z,10.05
2023-02-15T19:21:15.574Z,9.75
2023-02-15T19:24:19.126Z,9.68
2023-02-15T19:27:22.169Z,9.88
2023-02-15T19:30:25.087Z,10.02
2023-02-15T19:33:28.438Z,10.40
2023-02-15T19:36:31.310Z,10.25
2023-02-15T19:39:33.778Z,9.93
2023-02-15T19:42:36.557Z,10.00
2023-02-15T19:45:39.233Z,9.90
2023-02-15T19:48:42.404Z,10.40
2023-02-15T19:51:45.567Z,9.88
2023-02-15T19:54:48.720Z,10.18
2023-02-15T19:57:51.913Z,9.52
2023-02-15T20:00:54.424Z,9.00
2023-02-15T20:03:57.588Z,9.15
2023-02-15T20:07:01.094Z,8.40
2023-02-15T20:10:03.775Z,8.73
2023-02-15T20:13:06.107Z,9.00
2023-02-15T20:16:08.533Z,8.55
2023-02-15T20:19:11.795Z,8.38
2023-02-15T20:22:15.110Z,8.32
2023-02-15T20:25:17.581Z,8.75
2023-02-15T20:28:20.317Z,9.38
2023-02-15T20:31:23.561Z,8.93
2023-02-15T20:34:26.528Z,9.15
2023-02-15T20:37:28.833Z,9.60
2023-02-15T20:40:31.048Z,9.38
2023-02-15T20:43:34.112Z,9.65
2023-02-15T20:46:37.118Z,9.43
2023-02-15T20:49:39.810Z,9.85
2023-02-15T20:52:42.525Z,9.60
2023-02-15T20:55:45.345Z,10.05
2023-02-15T20:58:48.546Z,10.13
2023-02-15T21:01:51.696Z,9.60
2023-02-15T21:04:54.468Z,9.75
2023-02-15T21:07:57.240Z,10.13
2023-02-15T21:11:01.453Z,10.02
2023-02-15T21:14:04.925Z,11.18
2023-02-15T21:17:08.347Z,9.70
2023-02-15T21:20:11.321Z,9.93
2023-02-15T21:23:13.982Z,11.20
2023-02-15T21:26:18.467Z,10.20
2023-02-15T21:29:22.215Z,10.30
2023-02-15T21:32:25.086Z,9.90
2023-02-15T21:35:28.280Z,10.02
2023-02-15T21:38:31.457Z,10.45
2023-02-15T21:41:34.214Z,10.50
2023-02-15T21:44:36.922Z,10.23
2023-02-15T21:47:41.378Z,10.55
2023-02-15T21:50:44.690Z,11.18
2023-02-15T21:53:48.088Z,10.52
2023-02-15T21:56:52.169Z,11.15
2023-02-15T21:59:55.848Z,9.98
2023-02-15T22:02:59.329Z,10.65
2023-02-15T22:06:01.616Z,10.65
2023-02-15T22:09:05.286Z,10.73
2023-02-15T22:12:07.823Z,10.82
2023-02-15T22:15:10.821Z,10.10
2023-02-15T22:18:13.524Z,9.75
2023-02-15T22:21:15.829Z,10.43
2023-02-15T22:24:18.934Z,10.10
2023-02-15T22:27:22.897Z,9.45
2023-02-15T22:30:26.436Z,9.25
2023-02-15T22:33:29.687Z,9.43
2023-02-15T22:36:33.563Z,9.40
2023-02-15T22:39:37.319Z,9.75
2023-02-15T22:42:40.474Z,9.57
2023-02-15T22:45:44.416Z,10.23
2023-02-15T22:48:46.894Z,10.00
2023-02-15T22:51:50.006Z,9.93
2023-02-15T22:54:52.888Z,10.43
2023-02-15T22:57:55.934Z,10.50
2023-02-15T23:00:59.038Z,11.10
2023-02-15T23:04:04.078Z,10.60
2023-02-15T23:07:06.573Z,11.35
2023-02-15T23:10:09.912Z,11.35
2023-02-15T23:13:12.629Z,10.75
2023-02-15T23:16:15.109Z,11.15
2023-02-15T23:19:18.209Z,11.13
2023-02-15T23:22:21.687Z,11.48
2023-02-15T23:25:24.392Z,11.93
2023-02-15T23:28:27.703Z,11.60
2023-02-15T23:31:30.624Z,11.80
2023-02-15T23:34:33.827Z,12.52
2023-02-15T23:37:36.736Z,12.40
2023-02-15T23:40:39.453Z,12.60
2023-02-15T23:43:42.070Z,12.57
2023-02-15T23:46:44.314Z,12.63
2023-02-15T23:49:47.056Z,12.45
2023-02-15T23:52:49.664Z,12.93
2023-02-15T23:55:52.480Z,12.70
2023-02-15T23:58:55.210Z,11.15
